TOM8EC LCPH-EGBB
Flight info
| Callsign | TOM8EC |
|---|---|
| Flight time | 4h 14m |
| Altitude | 40000 |
| Route | GENOS DCT PEDER DCT LUTIG DCT RDS UL609 MES DCT GIKAS DCT FSK UL608 DISOR DCT LONTA UL608 DOLEV DCT PODOB DCT LIKVI DCT MONID DCT NEMEK DCT EPODO DCT KANIN DCT VEKEN DCT UMVEG DCT KPT L608 KUNOD DCT KRH DCT LIRSU DCT SOGRI DCT DENUT L610 HEMEL |
| Aircraft | B788/H-SDE1E2E3FGHIJ2J3J4J5M1RWXY/LB1D1 |
Departure
| Time | 2026-04-07 11:08 |
|---|---|
| Airport | Paphos International Airport (LCPH) |
Arrival
| Time | 2026-04-07 15:22 |
|---|---|
| Airport | Birmingham Airport (EGBB) |
| Time | Latitude | Longitude | Altitude | Speed | Heading |
|---|---|---|---|---|---|
| 2026-04-07 10:56 | 34.71357 | 32.48760 | 51 ft | 0 kts | 154° |
| 2026-04-07 11:01 | 34.71368 | 32.48754 | 45 ft | 3 kts | 154° |
| 2026-04-07 11:01 | 34.71386 | 32.48743 | 50 ft | 3 kts | 155° |
| 2026-04-07 11:01 | 34.71400 | 32.48735 | 47 ft | 3 kts | 148° |
| 2026-04-07 11:02 | 34.71410 | 32.48722 | 47 ft | 3 kts | 111° |
| 2026-04-07 11:02 | 34.71412 | 32.48701 | 46 ft | 3 kts | 85° |
| 2026-04-07 11:02 | 34.71408 | 32.48678 | 47 ft | 3 kts | 70° |
| 2026-04-07 11:02 | 34.71404 | 32.48666 | 48 ft | 1 kts | 65° |
| 2026-04-07 11:03 | 34.71403 | 32.48663 | 52 ft | 0 kts | 65° |
| 2026-04-07 11:03 | 34.71404 | 32.48667 | 52 ft | 1 kts | 64° |
| 2026-04-07 11:03 | 34.71414 | 32.48692 | 48 ft | 8 kts | 69° |
| 2026-04-07 11:03 | 34.71442 | 32.48775 | 48 ft | 11 kts | 64° |
| 2026-04-07 11:04 | 34.71475 | 32.48860 | 47 ft | 11 kts | 66° |
| 2026-04-07 11:04 | 34.71504 | 32.48947 | 50 ft | 8 kts | 72° |
| 2026-04-07 11:04 | 34.71515 | 32.48964 | 46 ft | 5 kts | 25° |
| 2026-04-07 11:04 | 34.71613 | 32.49017 | 47 ft | 14 kts | 46° |
| 2026-04-07 11:05 | 34.71628 | 32.49071 | 48 ft | 9 kts | 92° |
| 2026-04-07 11:05 | 34.71610 | 32.49156 | 50 ft | 14 kts | 112° |
| 2026-04-07 11:05 | 34.71558 | 32.49314 | 51 ft | 24 kts | 114° |
| 2026-04-07 11:05 | 34.71496 | 32.49505 | 50 ft | 24 kts | 110° |
| 2026-04-07 11:06 | 34.71440 | 32.49699 | 49 ft | 22 kts | 108° |
| 2026-04-07 11:06 | 34.71373 | 32.49797 | 50 ft | 12 kts | 121° |
| 2026-04-07 11:06 | 34.71370 | 32.49826 | 50 ft | 1 kts | 56° |
| 2026-04-07 11:06 | 34.71374 | 32.49831 | 50 ft | 1 kts | 33° |
| 2026-04-07 11:07 | 34.71389 | 32.49830 | 50 ft | 3 kts | 322° |
| 2026-04-07 11:07 | 34.71442 | 32.49726 | 46 ft | 43 kts | 295° |
| 2026-04-07 11:07 | 34.71643 | 32.49060 | 46 ft | 122 kts | 290° |
| 2026-04-07 11:07 | 34.71981 | 32.47881 | 458 ft | 159 kts | 285° |
| 2026-04-07 11:08 | 34.72362 | 32.46625 | 1567 ft | 161 kts | 291° |
| 2026-04-07 11:08 | 34.72369 | 32.45173 | 2046 ft | 192 kts | 257° |
| 2026-04-07 11:08 | 34.71914 | 32.43529 | 2541 ft | 222 kts | 253° |
| 2026-04-07 11:08 | 34.71397 | 32.41629 | 3110 ft | 250 kts | 255° |
| 2026-04-07 11:09 | 34.70938 | 32.39545 | 4078 ft | 259 kts | 257° |
| 2026-04-07 11:09 | 34.70494 | 32.37385 | 5143 ft | 266 kts | 257° |
| 2026-04-07 11:09 | 34.70022 | 32.35184 | 6230 ft | 271 kts | 257° |
| 2026-04-07 11:09 | 34.69533 | 32.32944 | 7266 ft | 276 kts | 257° |
| 2026-04-07 11:10 | 34.69041 | 32.30677 | 8299 ft | 280 kts | 257° |
| 2026-04-07 11:10 | 34.68548 | 32.28401 | 9302 ft | 284 kts | 257° |
| 2026-04-07 11:10 | 34.68041 | 32.26058 | 10278 ft | 289 kts | 257° |
| 2026-04-07 11:10 | 34.67507 | 32.23589 | 10679 ft | 315 kts | 257° |
| 2026-04-07 11:11 | 34.66923 | 32.20896 | 10938 ft | 344 kts | 257° |
| 2026-04-07 11:11 | 34.66301 | 32.18016 | 11651 ft | 353 kts | 259° |
| 2026-04-07 11:11 | 34.66141 | 32.15090 | 12594 ft | 354 kts | 276° |
| 2026-04-07 11:11 | 34.66356 | 32.12086 | 13490 ft | 359 kts | 276° |
| 2026-04-07 11:12 | 34.66577 | 32.09048 | 14353 ft | 364 kts | 276° |
| 2026-04-07 11:12 | 34.66795 | 32.05967 | 15141 ft | 369 kts | 276° |
| 2026-04-07 11:12 | 34.67009 | 32.02845 | 15927 ft | 374 kts | 276° |
| 2026-04-07 11:12 | 34.67229 | 31.99675 | 16701 ft | 379 kts | 276° |
| 2026-04-07 11:13 | 34.67452 | 31.96468 | 17465 ft | 384 kts | 277° |
| 2026-04-07 11:13 | 34.67678 | 31.93214 | 18208 ft | 389 kts | 277° |
| 2026-04-07 11:13 | 34.68176 | 31.89993 | 18861 ft | 389 kts | 292° |
| 2026-04-07 11:13 | 34.69377 | 31.87041 | 19483 ft | 392 kts | 302° |
| 2026-04-07 11:14 | 34.70772 | 31.84174 | 20102 ft | 396 kts | 303° |
| 2026-04-07 11:14 | 34.72198 | 31.81297 | 20714 ft | 400 kts | 303° |
| 2026-04-07 11:14 | 34.73613 | 31.78409 | 21320 ft | 404 kts | 303° |
| 2026-04-07 11:14 | 34.75050 | 31.75436 | 21905 ft | 408 kts | 303° |
| 2026-04-07 11:15 | 34.76500 | 31.72446 | 22480 ft | 412 kts | 303° |
| 2026-04-07 11:15 | 34.77969 | 31.69434 | 23048 ft | 416 kts | 303° |
| 2026-04-07 11:15 | 34.79462 | 31.66367 | 23587 ft | 420 kts | 303° |
| 2026-04-07 11:15 | 34.80937 | 31.63322 | 24045 ft | 424 kts | 303° |
| 2026-04-07 11:16 | 34.82442 | 31.60214 | 24487 ft | 427 kts | 303° |
| 2026-04-07 11:16 | 34.83961 | 31.57080 | 24910 ft | 431 kts | 303° |
| 2026-04-07 11:16 | 34.85489 | 31.53927 | 25354 ft | 434 kts | 303° |
| 2026-04-07 11:16 | 34.87027 | 31.50746 | 25773 ft | 437 kts | 303° |
| 2026-04-07 11:17 | 34.88581 | 31.47528 | 26184 ft | 441 kts | 303° |
| 2026-04-07 11:17 | 34.90141 | 31.44296 | 26600 ft | 444 kts | 303° |
| 2026-04-07 11:17 | 34.91710 | 31.41043 | 26989 ft | 447 kts | 303° |
| 2026-04-07 11:17 | 34.93289 | 31.37765 | 27383 ft | 450 kts | 303° |
| 2026-04-07 11:18 | 34.94863 | 31.34496 | 27770 ft | 453 kts | 303° |
| 2026-04-07 11:18 | 34.96469 | 31.31157 | 28152 ft | 456 kts | 303° |
| 2026-04-07 11:18 | 34.98076 | 31.27810 | 28525 ft | 459 kts | 303° |
| 2026-04-07 11:18 | 34.99696 | 31.24435 | 28894 ft | 462 kts | 303° |
| 2026-04-07 11:19 | 35.01326 | 31.21036 | 29253 ft | 465 kts | 303° |
| 2026-04-07 11:19 | 35.02967 | 31.17610 | 29611 ft | 468 kts | 304° |
| 2026-04-07 11:19 | 35.04614 | 31.14167 | 29951 ft | 471 kts | 304° |
| 2026-04-07 11:19 | 35.06272 | 31.10700 | 30281 ft | 473 kts | 303° |
| 2026-04-07 11:20 | 35.07932 | 31.07224 | 30602 ft | 475 kts | 303° |
| 2026-04-07 11:20 | 35.09599 | 31.03727 | 30930 ft | 477 kts | 303° |
| 2026-04-07 11:20 | 35.11268 | 31.00225 | 31254 ft | 478 kts | 303° |
| 2026-04-07 11:20 | 35.12924 | 30.96749 | 31554 ft | 480 kts | 302° |
| 2026-04-07 11:21 | 35.14603 | 30.93218 | 31856 ft | 481 kts | 302° |
| 2026-04-07 11:21 | 35.16290 | 30.89669 | 32147 ft | 483 kts | 302° |
| 2026-04-07 11:21 | 35.17966 | 30.86088 | 32432 ft | 485 kts | 298° |
| 2026-04-07 11:21 | 35.19476 | 30.82384 | 32677 ft | 488 kts | 298° |
| 2026-04-07 11:22 | 35.21045 | 30.78583 | 32954 ft | 489 kts | 298° |
| 2026-04-07 11:22 | 35.22546 | 30.74957 | 33228 ft | 490 kts | 298° |
| 2026-04-07 11:22 | 35.24059 | 30.71264 | 33550 ft | 490 kts | 298° |
| 2026-04-07 11:22 | 35.25582 | 30.67526 | 33993 ft | 488 kts | 297° |
| 2026-04-07 11:23 | 35.27099 | 30.63818 | 34391 ft | 485 kts | 297° |
| 2026-04-07 11:23 | 35.28609 | 30.60134 | 34813 ft | 482 kts | 297° |
| 2026-04-07 11:23 | 35.30108 | 30.56463 | 35224 ft | 478 kts | 296° |
| 2026-04-07 11:23 | 35.31592 | 30.52820 | 35519 ft | 478 kts | 296° |
| 2026-04-07 11:24 | 35.33071 | 30.49184 | 35830 ft | 477 kts | 296° |
| 2026-04-07 11:24 | 35.34532 | 30.45598 | 36131 ft | 476 kts | 296° |
| 2026-04-07 11:24 | 35.36010 | 30.41963 | 36449 ft | 474 kts | 296° |
| 2026-04-07 11:24 | 35.37476 | 30.38349 | 36809 ft | 472 kts | 295° |
| 2026-04-07 11:25 | 35.40393 | 30.31151 | 37511 ft | 469 kts | 295° |
| 2026-04-07 11:25 | 35.41838 | 30.27582 | 37866 ft | 467 kts | 295° |
| 2026-04-07 11:25 | 35.43280 | 30.24015 | 38213 ft | 465 kts | 295° |
| 2026-04-07 11:26 | 35.44695 | 30.20510 | 38553 ft | 463 kts | 294° |
| 2026-04-07 11:26 | 35.46123 | 30.16970 | 38881 ft | 462 kts | 294° |
| 2026-04-07 11:26 | 35.47545 | 30.13439 | 39107 ft | 461 kts | 294° |
| 2026-04-07 11:26 | 35.48967 | 30.09906 | 39310 ft | 460 kts | 294° |
| 2026-04-07 11:27 | 35.50385 | 30.06380 | 39521 ft | 460 kts | 294° |
| 2026-04-07 11:27 | 35.51802 | 30.02852 | 39730 ft | 460 kts | 294° |
| 2026-04-07 11:27 | 35.53230 | 29.99343 | 39937 ft | 460 kts | 297° |
| 2026-04-07 11:27 | 35.54736 | 29.95924 | 40118 ft | 460 kts | 295° |
| 2026-04-07 11:28 | 35.56231 | 29.92449 | 40328 ft | 460 kts | 295° |
| 2026-04-07 11:28 | 35.57725 | 29.88972 | 40541 ft | 459 kts | 295° |
| 2026-04-07 11:28 | 35.59232 | 29.85506 | 40743 ft | 459 kts | 296° |
| 2026-04-07 11:28 | 35.60736 | 29.82050 | 40900 ft | 460 kts | 295° |
| 2026-04-07 11:29 | 35.62238 | 29.78571 | 41069 ft | 460 kts | 295° |
| 2026-04-07 11:29 | 35.63745 | 29.75069 | 41126 ft | 463 kts | 295° |
| 2026-04-07 11:29 | 35.64756 | 29.72724 | 41129 ft | 465 kts | 295° |
| 2026-04-07 11:30 | 35.67790 | 29.65697 | 41128 ft | 463 kts | 295° |
| 2026-04-07 11:30 | 35.70791 | 29.58709 | 41125 ft | 461 kts | 295° |
| 2026-04-07 11:31 | 35.73790 | 29.51724 | 41115 ft | 461 kts | 295° |
| 2026-04-07 11:31 | 35.76780 | 29.44741 | 41128 ft | 461 kts | 295° |
| 2026-04-07 11:32 | 35.79773 | 29.37737 | 41128 ft | 462 kts | 295° |
| 2026-04-07 11:32 | 35.82747 | 29.30761 | 41133 ft | 463 kts | 295° |
| 2026-04-07 11:33 | 35.85741 | 29.23724 | 41130 ft | 463 kts | 295° |
| 2026-04-07 11:33 | 35.88730 | 29.16684 | 41125 ft | 462 kts | 295° |
| 2026-04-07 11:34 | 35.91706 | 29.09662 | 41123 ft | 462 kts | 295° |
| 2026-04-07 11:34 | 35.94677 | 29.02634 | 41125 ft | 463 kts | 295° |
| 2026-04-07 11:35 | 35.97653 | 28.95579 | 41124 ft | 463 kts | 295° |
| 2026-04-07 11:35 | 36.00628 | 28.88513 | 41126 ft | 464 kts | 295° |
| 2026-04-07 11:36 | 36.03599 | 28.81439 | 41126 ft | 463 kts | 295° |
| 2026-04-07 11:36 | 36.06542 | 28.74419 | 41127 ft | 463 kts | 295° |
| 2026-04-07 11:37 | 36.09503 | 28.67339 | 41127 ft | 464 kts | 295° |
| 2026-04-07 11:37 | 36.12461 | 28.60252 | 41133 ft | 464 kts | 295° |
| 2026-04-07 11:38 | 36.15419 | 28.53150 | 41132 ft | 464 kts | 295° |
| 2026-04-07 11:38 | 36.18364 | 28.46063 | 41128 ft | 463 kts | 295° |
| 2026-04-07 11:39 | 36.21303 | 28.38975 | 41131 ft | 463 kts | 295° |
| 2026-04-07 11:39 | 36.24240 | 28.31878 | 41130 ft | 463 kts | 295° |
| 2026-04-07 11:40 | 36.27170 | 28.24782 | 41134 ft | 463 kts | 295° |
| 2026-04-07 11:40 | 36.30094 | 28.17683 | 41136 ft | 463 kts | 295° |
| 2026-04-07 11:41 | 36.33050 | 28.10593 | 41146 ft | 463 kts | 301° |
| 2026-04-07 11:41 | 36.37224 | 28.04484 | 41138 ft | 468 kts | 315° |
| 2026-04-07 11:42 | 36.41992 | 27.98977 | 41141 ft | 468 kts | 315° |
| 2026-04-07 11:42 | 36.46754 | 27.93478 | 41139 ft | 467 kts | 315° |
| 2026-04-07 11:43 | 36.51501 | 27.87979 | 41140 ft | 466 kts | 315° |
| 2026-04-07 11:43 | 36.56246 | 27.82477 | 41138 ft | 467 kts | 315° |
| 2026-04-07 11:44 | 36.60989 | 27.76966 | 41136 ft | 467 kts | 315° |
| 2026-04-07 11:44 | 36.65728 | 27.71451 | 41137 ft | 466 kts | 315° |
| 2026-04-07 11:45 | 36.70462 | 27.65930 | 41142 ft | 466 kts | 315° |
| 2026-04-07 11:45 | 36.75196 | 27.60401 | 41141 ft | 467 kts | 315° |
| 2026-04-07 11:46 | 36.79933 | 27.54859 | 41142 ft | 466 kts | 315° |
| 2026-04-07 11:46 | 36.84665 | 27.49312 | 41150 ft | 467 kts | 315° |
| 2026-04-07 11:47 | 36.89394 | 27.43758 | 41156 ft | 467 kts | 315° |
| 2026-04-07 11:47 | 36.94093 | 27.38231 | 41156 ft | 467 kts | 315° |
| 2026-04-07 11:48 | 36.98813 | 27.32669 | 41156 ft | 466 kts | 315° |
| 2026-04-07 11:48 | 37.03525 | 27.27105 | 41161 ft | 466 kts | 315° |
| 2026-04-07 11:49 | 37.08236 | 27.21533 | 41160 ft | 466 kts | 315° |
| 2026-04-07 11:49 | 37.12980 | 27.15913 | 41163 ft | 466 kts | 315° |
| 2026-04-07 11:50 | 37.17679 | 27.10336 | 41046 ft | 465 kts | 315° |
| 2026-04-07 11:50 | 37.22339 | 27.04794 | 40874 ft | 465 kts | 315° |
| 2026-04-07 11:51 | 37.24685 | 27.02000 | 40765 ft | 465 kts | 315° |
| 2026-04-07 11:51 | 37.26269 | 27.00113 | 40701 ft | 465 kts | 315° |
| 2026-04-07 11:51 | 37.29372 | 26.96412 | 40579 ft | 465 kts | 315° |
| 2026-04-07 11:51 | 37.30956 | 26.94521 | 40503 ft | 465 kts | 315° |
| 2026-04-07 11:52 | 37.33307 | 26.91712 | 40392 ft | 466 kts | 315° |
| 2026-04-07 11:52 | 37.35650 | 26.88911 | 40300 ft | 466 kts | 315° |
| 2026-04-07 11:52 | 37.38000 | 26.86098 | 40179 ft | 466 kts | 315° |
| 2026-04-07 11:52 | 37.40365 | 26.83316 | 40162 ft | 465 kts | 319° |
| 2026-04-07 11:53 | 37.45267 | 26.78104 | 40158 ft | 465 kts | 320° |
| 2026-04-07 11:53 | 37.50408 | 26.73107 | 40152 ft | 467 kts | 321° |
| 2026-04-07 11:54 | 37.55502 | 26.68031 | 40157 ft | 467 kts | 320° |
| 2026-04-07 11:54 | 37.58032 | 26.65515 | 40624 ft | 458 kts | 320° |
| 2026-04-07 11:54 | 37.60535 | 26.63052 | 40911 ft | 456 kts | 320° |
| 2026-04-07 11:55 | 37.63032 | 26.60579 | 41099 ft | 457 kts | 320° |
| 2026-04-07 11:55 | 37.65525 | 26.58090 | 41312 ft | 457 kts | 320° |
| 2026-04-07 11:55 | 37.68019 | 26.55603 | 41511 ft | 457 kts | 320° |
| 2026-04-07 11:55 | 37.70515 | 26.53124 | 41708 ft | 457 kts | 320° |
| 2026-04-07 11:56 | 37.73012 | 26.50639 | 41934 ft | 457 kts | 320° |
| 2026-04-07 11:56 | 37.75503 | 26.48153 | 42132 ft | 457 kts | 320° |
| 2026-04-07 11:56 | 37.77992 | 26.45665 | 42331 ft | 457 kts | 320° |
| 2026-04-07 11:56 | 37.80487 | 26.43172 | 42540 ft | 457 kts | 320° |
| 2026-04-07 11:57 | 37.82980 | 26.40682 | 42761 ft | 456 kts | 320° |
| 2026-04-07 11:57 | 37.85467 | 26.38192 | 42942 ft | 457 kts | 320° |
| 2026-04-07 11:57 | 37.87960 | 26.35693 | 43092 ft | 458 kts | 320° |
| 2026-04-07 11:57 | 37.90461 | 26.33185 | 43164 ft | 460 kts | 320° |
| 2026-04-07 11:58 | 37.95500 | 26.28126 | 43154 ft | 462 kts | 320° |
| 2026-04-07 11:58 | 38.00508 | 26.23090 | 43153 ft | 458 kts | 320° |
| 2026-04-07 11:59 | 38.05481 | 26.18077 | 43153 ft | 456 kts | 320° |
| 2026-04-07 11:59 | 38.10449 | 26.13063 | 43148 ft | 456 kts | 320° |
| 2026-04-07 12:00 | 38.15409 | 26.08046 | 43150 ft | 456 kts | 320° |
| 2026-04-07 12:00 | 38.20377 | 26.03013 | 43151 ft | 456 kts | 320° |
| 2026-04-07 12:01 | 38.25334 | 25.97982 | 43151 ft | 456 kts | 320° |
| 2026-04-07 12:01 | 38.30294 | 25.92939 | 43156 ft | 456 kts | 320° |
| 2026-04-07 12:02 | 38.35255 | 25.87886 | 43154 ft | 456 kts | 320° |
| 2026-04-07 12:02 | 38.40212 | 25.82827 | 43159 ft | 457 kts | 320° |
| 2026-04-07 12:03 | 38.45171 | 25.77757 | 43159 ft | 457 kts | 320° |
| 2026-04-07 12:03 | 38.50134 | 25.72674 | 43160 ft | 457 kts | 320° |
| 2026-04-07 12:04 | 38.55087 | 25.67592 | 43166 ft | 457 kts | 320° |
| 2026-04-07 12:04 | 38.60043 | 25.62499 | 43169 ft | 457 kts | 320° |
| 2026-04-07 12:05 | 38.64999 | 25.57395 | 43166 ft | 458 kts | 320° |
| 2026-04-07 12:05 | 38.69961 | 25.52276 | 43168 ft | 458 kts | 320° |
| 2026-04-07 12:06 | 38.74917 | 25.47154 | 43167 ft | 458 kts | 320° |
| 2026-04-07 12:06 | 38.79835 | 25.42061 | 43169 ft | 458 kts | 320° |
| 2026-04-07 12:07 | 38.84785 | 25.36926 | 43165 ft | 458 kts | 320° |
| 2026-04-07 12:07 | 38.89736 | 25.31781 | 43166 ft | 458 kts | 320° |
| 2026-04-07 12:08 | 38.94678 | 25.26635 | 43164 ft | 457 kts | 320° |
| 2026-04-07 12:08 | 38.99618 | 25.21482 | 43162 ft | 458 kts | 320° |
| 2026-04-07 12:09 | 39.04562 | 25.16315 | 43168 ft | 458 kts | 320° |
| 2026-04-07 12:09 | 39.09493 | 25.11153 | 43159 ft | 457 kts | 320° |
| 2026-04-07 12:10 | 39.14417 | 25.05987 | 43143 ft | 456 kts | 320° |
| 2026-04-07 12:10 | 39.19339 | 25.00814 | 43146 ft | 456 kts | 320° |
| 2026-04-07 12:11 | 39.24244 | 24.95650 | 43148 ft | 455 kts | 320° |
| 2026-04-07 12:11 | 39.29152 | 24.90472 | 43144 ft | 456 kts | 320° |
| 2026-04-07 12:12 | 39.34063 | 24.85283 | 43144 ft | 456 kts | 320° |
| 2026-04-07 12:12 | 39.38979 | 24.80078 | 43148 ft | 457 kts | 320° |
| 2026-04-07 12:13 | 39.43892 | 24.74866 | 43143 ft | 457 kts | 320° |
| 2026-04-07 12:13 | 39.48799 | 24.69651 | 43147 ft | 456 kts | 320° |
| 2026-04-07 12:14 | 39.53687 | 24.64447 | 43142 ft | 455 kts | 320° |
| 2026-04-07 12:14 | 39.58566 | 24.59242 | 43138 ft | 454 kts | 320° |
| 2026-04-07 12:15 | 39.63438 | 24.54034 | 43147 ft | 454 kts | 320° |
| 2026-04-07 12:15 | 39.68307 | 24.48820 | 43146 ft | 454 kts | 320° |
| 2026-04-07 12:16 | 39.73177 | 24.43596 | 43139 ft | 453 kts | 320° |
| 2026-04-07 12:16 | 39.78032 | 24.38377 | 43147 ft | 452 kts | 320° |
| 2026-04-07 12:17 | 39.82873 | 24.33163 | 43143 ft | 451 kts | 320° |
| 2026-04-07 12:17 | 39.87675 | 24.27982 | 43149 ft | 451 kts | 320° |
| 2026-04-07 12:18 | 39.92501 | 24.22765 | 43139 ft | 451 kts | 320° |
| 2026-04-07 12:18 | 39.97331 | 24.17534 | 43141 ft | 451 kts | 320° |
| 2026-04-07 12:19 | 40.02149 | 24.12306 | 43127 ft | 450 kts | 320° |
| 2026-04-07 12:19 | 40.06958 | 24.07078 | 43129 ft | 450 kts | 320° |
| 2026-04-07 12:20 | 40.11759 | 24.01849 | 43125 ft | 449 kts | 320° |
| 2026-04-07 12:20 | 40.16558 | 23.96611 | 43128 ft | 450 kts | 320° |
| 2026-04-07 12:21 | 40.21360 | 23.91361 | 43129 ft | 450 kts | 319° |
| 2026-04-07 12:21 | 40.26148 | 23.86115 | 43121 ft | 449 kts | 319° |
| 2026-04-07 12:22 | 40.30903 | 23.80896 | 43117 ft | 449 kts | 319° |
| 2026-04-07 12:22 | 40.35684 | 23.75639 | 43120 ft | 449 kts | 319° |
| 2026-04-07 12:23 | 40.40499 | 23.70334 | 43124 ft | 449 kts | 319° |
| 2026-04-07 12:23 | 40.45249 | 23.65090 | 43120 ft | 449 kts | 319° |
| 2026-04-07 12:24 | 40.50062 | 23.59767 | 43116 ft | 450 kts | 319° |
| 2026-04-07 12:24 | 40.54846 | 23.54466 | 43113 ft | 450 kts | 319° |
| 2026-04-07 12:25 | 40.59599 | 23.49188 | 43108 ft | 450 kts | 319° |
| 2026-04-07 12:25 | 40.64379 | 23.43870 | 43106 ft | 450 kts | 319° |
| 2026-04-07 12:26 | 40.69166 | 23.38535 | 43113 ft | 451 kts | 319° |
| 2026-04-07 12:26 | 40.73944 | 23.33198 | 43105 ft | 450 kts | 319° |
| 2026-04-07 12:27 | 40.78724 | 23.27850 | 43104 ft | 450 kts | 319° |
| 2026-04-07 12:27 | 40.83499 | 23.22497 | 43118 ft | 450 kts | 319° |
| 2026-04-07 12:28 | 40.88259 | 23.17149 | 43111 ft | 450 kts | 319° |
| 2026-04-07 12:29 | 40.95405 | 23.09101 | 43112 ft | 450 kts | 319° |
| 2026-04-07 12:29 | 41.00198 | 23.03691 | 43115 ft | 450 kts | 319° |
| 2026-04-07 12:30 | 41.04949 | 22.98317 | 43116 ft | 449 kts | 319° |
| 2026-04-07 12:30 | 41.09695 | 22.92938 | 43113 ft | 449 kts | 319° |
| 2026-04-07 12:31 | 41.14405 | 22.87589 | 43118 ft | 449 kts | 319° |
| 2026-04-07 12:31 | 41.19182 | 22.82154 | 43116 ft | 450 kts | 319° |
| 2026-04-07 12:32 | 41.23919 | 22.76751 | 43112 ft | 450 kts | 318° |
| 2026-04-07 12:32 | 41.28215 | 22.70709 | 43114 ft | 450 kts | 312° |
| 2026-04-07 12:33 | 41.32420 | 22.64606 | 43114 ft | 450 kts | 312° |
| 2026-04-07 12:33 | 41.36654 | 22.58375 | 43114 ft | 450 kts | 312° |
| 2026-04-07 12:34 | 41.40837 | 22.52247 | 43119 ft | 451 kts | 312° |
| 2026-04-07 12:34 | 41.45044 | 22.46049 | 43129 ft | 452 kts | 312° |
| 2026-04-07 12:35 | 41.49269 | 22.39823 | 43128 ft | 453 kts | 312° |
| 2026-04-07 12:35 | 41.53483 | 22.33594 | 43136 ft | 452 kts | 312° |
| 2026-04-07 12:36 | 41.57683 | 22.27375 | 43138 ft | 451 kts | 312° |
| 2026-04-07 12:36 | 41.61877 | 22.21151 | 43132 ft | 450 kts | 312° |
| 2026-04-07 12:37 | 41.65385 | 22.15935 | 43128 ft | 450 kts | 312° |
| 2026-04-07 12:37 | 41.69536 | 22.09752 | 43135 ft | 450 kts | 312° |
| 2026-04-07 12:38 | 41.73715 | 22.03514 | 43130 ft | 449 kts | 312° |
| 2026-04-07 12:38 | 41.77881 | 21.97282 | 43130 ft | 449 kts | 312° |
| 2026-04-07 12:39 | 41.82038 | 21.91051 | 43133 ft | 448 kts | 312° |
| 2026-04-07 12:39 | 41.86195 | 21.84805 | 43136 ft | 448 kts | 312° |
| 2026-04-07 12:40 | 41.90346 | 21.78557 | 43136 ft | 448 kts | 312° |
| 2026-04-07 12:40 | 41.94495 | 21.72298 | 43134 ft | 449 kts | 312° |
| 2026-04-07 12:41 | 41.98649 | 21.66018 | 43138 ft | 450 kts | 312° |
| 2026-04-07 12:41 | 42.02805 | 21.59721 | 43131 ft | 451 kts | 311° |
| 2026-04-07 12:42 | 42.06962 | 21.53410 | 43138 ft | 451 kts | 312° |
| 2026-04-07 12:42 | 42.11118 | 21.47086 | 43139 ft | 451 kts | 311° |
| 2026-04-07 12:43 | 42.15279 | 21.40741 | 43134 ft | 451 kts | 311° |
| 2026-04-07 12:43 | 42.19375 | 21.34331 | 43135 ft | 451 kts | 310° |
| 2026-04-07 12:44 | 42.23396 | 21.27900 | 43142 ft | 451 kts | 311° |
| 2026-04-07 12:44 | 42.27468 | 21.21469 | 43142 ft | 450 kts | 310° |
| 2026-04-07 12:45 | 42.31509 | 21.15010 | 43145 ft | 450 kts | 311° |
| 2026-04-07 12:45 | 42.35561 | 21.08558 | 43146 ft | 450 kts | 310° |
| 2026-04-07 12:46 | 42.39599 | 21.02092 | 43153 ft | 450 kts | 310° |
| 2026-04-07 12:46 | 42.43639 | 20.95622 | 43152 ft | 450 kts | 310° |
| 2026-04-07 12:47 | 42.47669 | 20.89146 | 43149 ft | 450 kts | 310° |
| 2026-04-07 12:47 | 42.51712 | 20.82639 | 43154 ft | 450 kts | 310° |
| 2026-04-07 12:48 | 42.55747 | 20.76129 | 43147 ft | 451 kts | 310° |
| 2026-04-07 12:48 | 42.59743 | 20.69668 | 43138 ft | 451 kts | 310° |
| 2026-04-07 12:49 | 42.63811 | 20.63075 | 43144 ft | 451 kts | 310° |
| 2026-04-07 12:49 | 42.67834 | 20.56543 | 43136 ft | 451 kts | 310° |
| 2026-04-07 12:50 | 42.71831 | 20.50036 | 43126 ft | 451 kts | 310° |
| 2026-04-07 12:50 | 42.75876 | 20.43438 | 43125 ft | 451 kts | 310° |
| 2026-04-07 12:51 | 42.79866 | 20.36915 | 43130 ft | 451 kts | 310° |
| 2026-04-07 12:51 | 42.83907 | 20.30292 | 43121 ft | 452 kts | 310° |
| 2026-04-07 12:52 | 42.87895 | 20.23746 | 43120 ft | 452 kts | 310° |
| 2026-04-07 12:52 | 42.91903 | 20.17150 | 43135 ft | 452 kts | 310° |
| 2026-04-07 12:53 | 42.95910 | 20.10541 | 43130 ft | 452 kts | 310° |
| 2026-04-07 12:53 | 42.99913 | 20.03925 | 43131 ft | 452 kts | 310° |
| 2026-04-07 12:54 | 43.03911 | 19.97302 | 43126 ft | 452 kts | 310° |
| 2026-04-07 12:54 | 43.07911 | 19.90660 | 43127 ft | 452 kts | 310° |
| 2026-04-07 12:55 | 43.11905 | 19.84013 | 43128 ft | 453 kts | 310° |
| 2026-04-07 12:55 | 43.15901 | 19.77348 | 43128 ft | 453 kts | 310° |
| 2026-04-07 12:56 | 43.19890 | 19.70679 | 43126 ft | 453 kts | 310° |
| 2026-04-07 12:56 | 43.23877 | 19.63999 | 43128 ft | 453 kts | 310° |
| 2026-04-07 12:57 | 43.27863 | 19.57304 | 43124 ft | 453 kts | 310° |
| 2026-04-07 12:57 | 43.31843 | 19.50605 | 43125 ft | 453 kts | 310° |
| 2026-04-07 12:58 | 43.35814 | 19.43906 | 43129 ft | 452 kts | 310° |
| 2026-04-07 12:58 | 43.39785 | 19.37190 | 43122 ft | 452 kts | 310° |
| 2026-04-07 12:59 | 43.43750 | 19.30471 | 43123 ft | 453 kts | 310° |
| 2026-04-07 12:59 | 43.47711 | 19.23742 | 43120 ft | 453 kts | 310° |
| 2026-04-07 13:00 | 43.51682 | 19.16979 | 43125 ft | 453 kts | 310° |
| 2026-04-07 13:00 | 43.55473 | 19.10049 | 43137 ft | 453 kts | 307° |
| 2026-04-07 13:01 | 43.59193 | 19.03023 | 43134 ft | 453 kts | 307° |
| 2026-04-07 13:01 | 43.62883 | 18.95976 | 43133 ft | 453 kts | 307° |
| 2026-04-07 13:02 | 43.66578 | 18.88932 | 43132 ft | 453 kts | 307° |
| 2026-04-07 13:02 | 43.70270 | 18.81865 | 43132 ft | 453 kts | 307° |
| 2026-04-07 13:03 | 43.73952 | 18.74803 | 43134 ft | 453 kts | 307° |
| 2026-04-07 13:03 | 43.77632 | 18.67729 | 43141 ft | 453 kts | 307° |
| 2026-04-07 13:04 | 43.81306 | 18.60647 | 43152 ft | 453 kts | 307° |
| 2026-04-07 13:04 | 43.84977 | 18.53555 | 43152 ft | 453 kts | 307° |
| 2026-04-07 13:05 | 43.88643 | 18.46456 | 43151 ft | 453 kts | 307° |
| 2026-04-07 13:05 | 43.92307 | 18.39343 | 43124 ft | 453 kts | 307° |
| 2026-04-07 13:06 | 43.95968 | 18.32219 | 43123 ft | 454 kts | 307° |
| 2026-04-07 13:06 | 43.99624 | 18.25087 | 43128 ft | 454 kts | 307° |
| 2026-04-07 13:07 | 44.03282 | 18.17933 | 43134 ft | 454 kts | 307° |
| 2026-04-07 13:07 | 44.06931 | 18.10779 | 43142 ft | 454 kts | 307° |
| 2026-04-07 13:08 | 44.10580 | 18.03607 | 43146 ft | 454 kts | 307° |
| 2026-04-07 13:08 | 44.14229 | 17.96427 | 43145 ft | 454 kts | 307° |
| 2026-04-07 13:09 | 44.17906 | 17.89264 | 43146 ft | 455 kts | 307° |
| 2026-04-07 13:09 | 44.21563 | 17.82080 | 43148 ft | 455 kts | 307° |
| 2026-04-07 13:10 | 44.25225 | 17.74888 | 43145 ft | 454 kts | 307° |
| 2026-04-07 13:10 | 44.28874 | 17.67695 | 43154 ft | 454 kts | 307° |
| 2026-04-07 13:11 | 44.32520 | 17.60495 | 43152 ft | 455 kts | 307° |
| 2026-04-07 13:11 | 44.36139 | 17.53329 | 43155 ft | 455 kts | 307° |
| 2026-04-07 13:12 | 44.39783 | 17.46095 | 43152 ft | 455 kts | 307° |
| 2026-04-07 13:12 | 44.43424 | 17.38850 | 43155 ft | 455 kts | 307° |
| 2026-04-07 13:13 | 44.47062 | 17.31591 | 43151 ft | 455 kts | 307° |
| 2026-04-07 13:13 | 44.50693 | 17.24330 | 43156 ft | 455 kts | 307° |
| 2026-04-07 13:14 | 44.54317 | 17.17063 | 43154 ft | 454 kts | 307° |
| 2026-04-07 13:14 | 44.57928 | 17.09803 | 43154 ft | 454 kts | 306° |
| 2026-04-07 13:15 | 44.61537 | 17.02530 | 43152 ft | 454 kts | 306° |
| 2026-04-07 13:15 | 44.65141 | 16.95250 | 43162 ft | 454 kts | 306° |
| 2026-04-07 13:16 | 44.68738 | 16.87964 | 43162 ft | 454 kts | 306° |
| 2026-04-07 13:16 | 44.72331 | 16.80668 | 43160 ft | 454 kts | 306° |
| 2026-04-07 13:17 | 44.75925 | 16.73352 | 43164 ft | 455 kts | 306° |
| 2026-04-07 13:17 | 44.79519 | 16.66018 | 43161 ft | 455 kts | 306° |
| 2026-04-07 13:18 | 44.83105 | 16.58679 | 43160 ft | 454 kts | 306° |
| 2026-04-07 13:18 | 44.86686 | 16.51333 | 43159 ft | 454 kts | 306° |
| 2026-04-07 13:19 | 44.90259 | 16.43985 | 43157 ft | 455 kts | 306° |
| 2026-04-07 13:19 | 44.93831 | 16.36620 | 43162 ft | 455 kts | 306° |
| 2026-04-07 13:20 | 44.97500 | 16.29355 | 43193 ft | 453 kts | 313° |
| 2026-04-07 13:20 | 45.01604 | 16.22667 | 43171 ft | 454 kts | 312° |
| 2026-04-07 13:21 | 45.05729 | 16.15904 | 43171 ft | 454 kts | 312° |
| 2026-04-07 13:21 | 45.09857 | 16.09139 | 43174 ft | 454 kts | 312° |
| 2026-04-07 13:22 | 45.13977 | 16.02356 | 43170 ft | 454 kts | 312° |
| 2026-04-07 13:22 | 45.18094 | 15.95572 | 43175 ft | 454 kts | 312° |
| 2026-04-07 13:23 | 45.22200 | 15.88783 | 43170 ft | 453 kts | 312° |
| 2026-04-07 13:23 | 45.26294 | 15.82001 | 43164 ft | 452 kts | 311° |
| 2026-04-07 13:24 | 45.30380 | 15.75214 | 43161 ft | 452 kts | 311° |
| 2026-04-07 13:24 | 45.33771 | 15.69570 | 43160 ft | 452 kts | 311° |
| 2026-04-07 13:25 | 45.37851 | 15.62764 | 43161 ft | 452 kts | 311° |
| 2026-04-07 13:25 | 45.41917 | 15.55965 | 43156 ft | 451 kts | 311° |
| 2026-04-07 13:26 | 45.45982 | 15.49150 | 43158 ft | 452 kts | 311° |
| 2026-04-07 13:26 | 45.50047 | 15.42318 | 43156 ft | 452 kts | 311° |
| 2026-04-07 13:27 | 45.54108 | 15.35478 | 43153 ft | 452 kts | 311° |
| 2026-04-07 13:27 | 45.58115 | 15.28571 | 43167 ft | 452 kts | 307° |
| 2026-04-07 13:28 | 45.61855 | 15.21347 | 43169 ft | 452 kts | 308° |
| 2026-04-07 13:28 | 45.65605 | 15.14116 | 43163 ft | 453 kts | 308° |
| 2026-04-07 13:29 | 45.69341 | 15.06873 | 43163 ft | 453 kts | 308° |
| 2026-04-07 13:29 | 45.73086 | 14.99609 | 43159 ft | 453 kts | 308° |
| 2026-04-07 13:30 | 45.76823 | 14.92331 | 43162 ft | 454 kts | 308° |
| 2026-04-07 13:30 | 45.80539 | 14.85081 | 43159 ft | 454 kts | 307° |
| 2026-04-07 13:31 | 45.84273 | 14.77774 | 43160 ft | 454 kts | 307° |
| 2026-04-07 13:31 | 45.88005 | 14.70455 | 43162 ft | 454 kts | 307° |
| 2026-04-07 13:32 | 45.91732 | 14.63125 | 43164 ft | 455 kts | 307° |
| 2026-04-07 13:32 | 45.95453 | 14.55788 | 43161 ft | 454 kts | 307° |
| 2026-04-07 13:33 | 45.99167 | 14.48446 | 43160 ft | 453 kts | 307° |
| 2026-04-07 13:33 | 46.04719 | 14.37435 | 43156 ft | 453 kts | 307° |
| 2026-04-07 13:34 | 46.08415 | 14.30079 | 43157 ft | 453 kts | 307° |
| 2026-04-07 13:34 | 46.12106 | 14.22716 | 43156 ft | 453 kts | 307° |
| 2026-04-07 13:35 | 46.15795 | 14.15336 | 43151 ft | 454 kts | 307° |
| 2026-04-07 13:35 | 46.19486 | 14.07941 | 43154 ft | 454 kts | 308° |
| 2026-04-07 13:36 | 46.23393 | 14.00814 | 43158 ft | 453 kts | 309° |
| 2026-04-07 13:36 | 46.27299 | 13.93655 | 43158 ft | 454 kts | 309° |
| 2026-04-07 13:37 | 46.31220 | 13.86497 | 43155 ft | 454 kts | 309° |
| 2026-04-07 13:37 | 46.35127 | 13.79315 | 43158 ft | 454 kts | 309° |
| 2026-04-07 13:38 | 46.39037 | 13.72129 | 43159 ft | 455 kts | 309° |
| 2026-04-07 13:38 | 46.42956 | 13.64897 | 43163 ft | 456 kts | 309° |
| 2026-04-07 13:39 | 46.46705 | 13.57480 | 43154 ft | 456 kts | 307° |
| 2026-04-07 13:39 | 46.50371 | 13.50129 | 43154 ft | 455 kts | 307° |
| 2026-04-07 13:40 | 46.54049 | 13.42633 | 43153 ft | 456 kts | 307° |
| 2026-04-07 13:40 | 46.57616 | 13.35113 | 43155 ft | 455 kts | 304° |
| 2026-04-07 13:41 | 46.61088 | 13.27412 | 43150 ft | 455 kts | 304° |
| 2026-04-07 13:41 | 46.64530 | 13.19683 | 43149 ft | 454 kts | 304° |
| 2026-04-07 13:42 | 46.67961 | 13.11983 | 43150 ft | 453 kts | 304° |
| 2026-04-07 13:42 | 46.71384 | 13.04273 | 43160 ft | 454 kts | 304° |
| 2026-04-07 13:43 | 46.74818 | 12.96516 | 43156 ft | 456 kts | 304° |
| 2026-04-07 13:43 | 46.78255 | 12.88735 | 43162 ft | 456 kts | 304° |
| 2026-04-07 13:44 | 46.81688 | 12.80935 | 43163 ft | 456 kts | 304° |
| 2026-04-07 13:44 | 46.85113 | 12.73136 | 43169 ft | 456 kts | 304° |
| 2026-04-07 13:45 | 46.88529 | 12.65334 | 43173 ft | 456 kts | 304° |
| 2026-04-07 13:45 | 46.91941 | 12.57518 | 43187 ft | 456 kts | 304° |
| 2026-04-07 13:46 | 46.95350 | 12.49687 | 43195 ft | 457 kts | 304° |
| 2026-04-07 13:46 | 46.98756 | 12.41841 | 43196 ft | 456 kts | 304° |
| 2026-04-07 13:47 | 47.02150 | 12.34000 | 43201 ft | 456 kts | 304° |
| 2026-04-07 13:47 | 47.05536 | 12.26157 | 43201 ft | 455 kts | 304° |
| 2026-04-07 13:48 | 47.08914 | 12.18309 | 43197 ft | 454 kts | 303° |
| 2026-04-07 13:48 | 47.12279 | 12.10466 | 43203 ft | 454 kts | 303° |
| 2026-04-07 13:49 | 47.15643 | 12.02608 | 43205 ft | 455 kts | 303° |
| 2026-04-07 13:49 | 47.19011 | 11.94715 | 43203 ft | 456 kts | 303° |
| 2026-04-07 13:50 | 47.22231 | 11.86665 | 43204 ft | 458 kts | 299° |
| 2026-04-07 13:50 | 47.25169 | 11.78365 | 43207 ft | 458 kts | 299° |
| 2026-04-07 13:51 | 47.28120 | 11.70030 | 43203 ft | 460 kts | 299° |
| 2026-04-07 13:51 | 47.31066 | 11.61663 | 43196 ft | 460 kts | 299° |
| 2026-04-07 13:52 | 47.34004 | 11.53306 | 43190 ft | 458 kts | 298° |
| 2026-04-07 13:52 | 47.36929 | 11.44949 | 43191 ft | 459 kts | 298° |
| 2026-04-07 13:53 | 47.39861 | 11.36552 | 43183 ft | 461 kts | 298° |
| 2026-04-07 13:53 | 47.42763 | 11.28213 | 43191 ft | 459 kts | 298° |
| 2026-04-07 13:54 | 47.45694 | 11.19762 | 43192 ft | 459 kts | 298° |
| 2026-04-07 13:54 | 47.48361 | 11.12049 | 43203 ft | 458 kts | 298° |
| 2026-04-07 13:55 | 47.51240 | 11.03698 | 43225 ft | 459 kts | 298° |
| 2026-04-07 13:55 | 47.54154 | 10.95218 | 43256 ft | 460 kts | 298° |
| 2026-04-07 13:56 | 47.57032 | 10.86814 | 43244 ft | 460 kts | 298° |
| 2026-04-07 13:56 | 47.59938 | 10.78303 | 43269 ft | 460 kts | 298° |
| 2026-04-07 13:57 | 47.62802 | 10.69885 | 43257 ft | 460 kts | 298° |
| 2026-04-07 13:57 | 47.65676 | 10.61411 | 43267 ft | 460 kts | 298° |
| 2026-04-07 13:58 | 47.68544 | 10.52928 | 43266 ft | 460 kts | 298° |
| 2026-04-07 13:58 | 47.71404 | 10.44440 | 43244 ft | 459 kts | 298° |
| 2026-04-07 13:59 | 47.74263 | 10.36579 | 43278 ft | 457 kts | 308° |
| 2026-04-07 13:59 | 47.78731 | 10.29934 | 43270 ft | 457 kts | 321° |
| 2026-04-07 14:00 | 47.83654 | 10.23940 | 43264 ft | 457 kts | 321° |
| 2026-04-07 14:00 | 47.88585 | 10.17917 | 43254 ft | 457 kts | 321° |
| 2026-04-07 14:01 | 47.93477 | 10.11926 | 43274 ft | 457 kts | 321° |
| 2026-04-07 14:01 | 47.98394 | 10.05890 | 43263 ft | 457 kts | 321° |
| 2026-04-07 14:02 | 48.03292 | 9.99862 | 43261 ft | 456 kts | 321° |
| 2026-04-07 14:02 | 48.08160 | 9.93855 | 43277 ft | 456 kts | 321° |
| 2026-04-07 14:03 | 48.13050 | 9.87805 | 43266 ft | 456 kts | 321° |
| 2026-04-07 14:03 | 48.17934 | 9.81748 | 43263 ft | 456 kts | 321° |
| 2026-04-07 14:04 | 48.22817 | 9.75677 | 43267 ft | 456 kts | 321° |
| 2026-04-07 14:04 | 48.27703 | 9.69586 | 43273 ft | 457 kts | 320° |
| 2026-04-07 14:05 | 48.32591 | 9.63477 | 43249 ft | 457 kts | 320° |
| 2026-04-07 14:05 | 48.37097 | 9.56856 | 43259 ft | 457 kts | 315° |
| 2026-04-07 14:06 | 48.41529 | 9.49992 | 43258 ft | 457 kts | 314° |
| 2026-04-07 14:06 | 48.45945 | 9.43092 | 43243 ft | 457 kts | 314° |
| 2026-04-07 14:07 | 48.50360 | 9.36196 | 43249 ft | 457 kts | 314° |
| 2026-04-07 14:07 | 48.54784 | 9.29259 | 43244 ft | 458 kts | 314° |
| 2026-04-07 14:08 | 48.59192 | 9.22332 | 43250 ft | 458 kts | 314° |
| 2026-04-07 14:08 | 48.63605 | 9.15376 | 43251 ft | 457 kts | 314° |
| 2026-04-07 14:09 | 48.68008 | 9.08418 | 43246 ft | 458 kts | 314° |
| 2026-04-07 14:09 | 48.72379 | 9.01491 | 43245 ft | 458 kts | 314° |
| 2026-04-07 14:10 | 48.76779 | 8.94501 | 43237 ft | 458 kts | 314° |
| 2026-04-07 14:10 | 48.81168 | 8.87509 | 43255 ft | 458 kts | 314° |
| 2026-04-07 14:11 | 48.85563 | 8.80488 | 43261 ft | 458 kts | 314° |
| 2026-04-07 14:11 | 48.89211 | 8.74644 | 43263 ft | 458 kts | 314° |
| 2026-04-07 14:12 | 48.93605 | 8.67591 | 43273 ft | 459 kts | 314° |
| 2026-04-07 14:12 | 48.97989 | 8.60532 | 43275 ft | 459 kts | 313° |
| 2026-04-07 14:13 | 49.02254 | 8.53291 | 43266 ft | 459 kts | 312° |
| 2026-04-07 14:13 | 49.06496 | 8.46089 | 43275 ft | 459 kts | 311° |
| 2026-04-07 14:14 | 49.10716 | 8.38756 | 43270 ft | 459 kts | 311° |
| 2026-04-07 14:14 | 49.14958 | 8.31449 | 43280 ft | 459 kts | 311° |
| 2026-04-07 14:15 | 49.19179 | 8.24114 | 43285 ft | 459 kts | 311° |
| 2026-04-07 14:15 | 49.23398 | 8.16782 | 43286 ft | 459 kts | 311° |
| 2026-04-07 14:16 | 49.27622 | 8.09413 | 43284 ft | 460 kts | 311° |
| 2026-04-07 14:16 | 49.31819 | 8.02073 | 43276 ft | 461 kts | 311° |
| 2026-04-07 14:17 | 49.36043 | 7.94664 | 43281 ft | 461 kts | 311° |
| 2026-04-07 14:17 | 49.40262 | 7.87242 | 43269 ft | 461 kts | 311° |
| 2026-04-07 14:18 | 49.44473 | 7.79814 | 43260 ft | 461 kts | 311° |
| 2026-04-07 14:18 | 49.48671 | 7.72388 | 43264 ft | 460 kts | 311° |
| 2026-04-07 14:19 | 49.52841 | 7.64990 | 43259 ft | 460 kts | 311° |
| 2026-04-07 14:19 | 49.57030 | 7.57537 | 43264 ft | 460 kts | 310° |
| 2026-04-07 14:20 | 49.61216 | 7.50069 | 43270 ft | 460 kts | 310° |
| 2026-04-07 14:20 | 49.65392 | 7.42595 | 43263 ft | 460 kts | 310° |
| 2026-04-07 14:21 | 49.69545 | 7.35143 | 43295 ft | 460 kts | 310° |
| 2026-04-07 14:21 | 49.73715 | 7.27639 | 43293 ft | 461 kts | 310° |
| 2026-04-07 14:22 | 49.77892 | 7.20099 | 43300 ft | 461 kts | 310° |
| 2026-04-07 14:22 | 49.82065 | 7.12545 | 43295 ft | 462 kts | 310° |
| 2026-04-07 14:23 | 49.86242 | 7.04964 | 43301 ft | 462 kts | 310° |
| 2026-04-07 14:23 | 49.90412 | 6.97371 | 43280 ft | 462 kts | 310° |
| 2026-04-07 14:24 | 49.94580 | 6.89761 | 43277 ft | 462 kts | 310° |
| 2026-04-07 14:24 | 49.98741 | 6.82141 | 43280 ft | 462 kts | 310° |
| 2026-04-07 14:25 | 50.02878 | 6.74543 | 43285 ft | 462 kts | 310° |
| 2026-04-07 14:25 | 50.07026 | 6.66902 | 43285 ft | 462 kts | 309° |
| 2026-04-07 14:26 | 50.11169 | 6.59247 | 43277 ft | 461 kts | 309° |
| 2026-04-07 14:26 | 50.15299 | 6.51596 | 43278 ft | 461 kts | 309° |
| 2026-04-07 14:27 | 50.19354 | 6.43838 | 43295 ft | 461 kts | 304° |
| 2026-04-07 14:27 | 50.23045 | 6.35627 | 43288 ft | 462 kts | 304° |
| 2026-04-07 14:28 | 50.26719 | 6.27468 | 43284 ft | 462 kts | 304° |
| 2026-04-07 14:28 | 50.30405 | 6.19239 | 43280 ft | 462 kts | 304° |
| 2026-04-07 14:29 | 50.34095 | 6.10984 | 43293 ft | 463 kts | 304° |
| 2026-04-07 14:29 | 50.37784 | 6.02703 | 43289 ft | 464 kts | 304° |
| 2026-04-07 14:30 | 50.41468 | 5.94407 | 43290 ft | 464 kts | 304° |
| 2026-04-07 14:30 | 50.45146 | 5.86097 | 43293 ft | 464 kts | 304° |
| 2026-04-07 14:31 | 50.48798 | 5.77822 | 43296 ft | 464 kts | 304° |
| 2026-04-07 14:31 | 50.52470 | 5.69473 | 43299 ft | 464 kts | 304° |
| 2026-04-07 14:32 | 50.56132 | 5.61122 | 43295 ft | 464 kts | 304° |
| 2026-04-07 14:32 | 50.59794 | 5.52743 | 43301 ft | 464 kts | 304° |
| 2026-04-07 14:33 | 50.63442 | 5.44370 | 43297 ft | 463 kts | 304° |
| 2026-04-07 14:33 | 50.67082 | 5.35988 | 43307 ft | 463 kts | 303° |
| 2026-04-07 14:34 | 50.74620 | 5.18545 | 43303 ft | 463 kts | 303° |
| 2026-04-07 14:35 | 50.77634 | 5.11538 | 43308 ft | 463 kts | 303° |
| 2026-04-07 14:35 | 50.81134 | 5.02992 | 43324 ft | 462 kts | 295° |
| 2026-04-07 14:36 | 50.84025 | 4.93875 | 43306 ft | 463 kts | 296° |
| 2026-04-07 14:36 | 50.86913 | 4.84763 | 43305 ft | 463 kts | 296° |
| 2026-04-07 14:37 | 50.89791 | 4.75630 | 43308 ft | 463 kts | 296° |
| 2026-04-07 14:37 | 50.92669 | 4.66477 | 43301 ft | 463 kts | 296° |
| 2026-04-07 14:38 | 50.95518 | 4.57373 | 43295 ft | 463 kts | 295° |
| 2026-04-07 14:38 | 50.98377 | 4.48207 | 43303 ft | 463 kts | 295° |
| 2026-04-07 14:39 | 51.02656 | 4.34422 | 43305 ft | 463 kts | 295° |
| 2026-04-07 14:40 | 51.05475 | 4.25299 | 43318 ft | 463 kts | 295° |
| 2026-04-07 14:40 | 51.08307 | 4.16099 | 43314 ft | 463 kts | 295° |
| 2026-04-07 14:41 | 51.11137 | 4.06872 | 43301 ft | 464 kts | 295° |
| 2026-04-07 14:41 | 51.13959 | 3.97632 | 43299 ft | 464 kts | 295° |
| 2026-04-07 14:42 | 51.16781 | 3.88363 | 43290 ft | 464 kts | 295° |
| 2026-04-07 14:42 | 51.19592 | 3.79088 | 43279 ft | 464 kts | 295° |
| 2026-04-07 14:43 | 51.22378 | 3.69866 | 43294 ft | 464 kts | 294° |
| 2026-04-07 14:43 | 51.24367 | 3.60147 | 43282 ft | 463 kts | 281° |
| 2026-04-07 14:44 | 51.25703 | 3.50074 | 43284 ft | 463 kts | 281° |
| 2026-04-07 14:44 | 51.27033 | 3.40004 | 43299 ft | 464 kts | 281° |
| 2026-04-07 14:45 | 51.28334 | 3.29914 | 43298 ft | 463 kts | 281° |
| 2026-04-07 14:45 | 51.29625 | 3.19830 | 43280 ft | 463 kts | 281° |
| 2026-04-07 14:46 | 51.30907 | 3.09761 | 43276 ft | 464 kts | 280° |
| 2026-04-07 14:46 | 51.32183 | 2.99645 | 43270 ft | 464 kts | 280° |
| 2026-04-07 14:47 | 51.33446 | 2.89570 | 43274 ft | 465 kts | 280° |
| 2026-04-07 14:47 | 51.34710 | 2.79403 | 43269 ft | 465 kts | 280° |
| 2026-04-07 14:48 | 51.35966 | 2.69252 | 43277 ft | 465 kts | 280° |
| 2026-04-07 14:48 | 51.37222 | 2.59064 | 43282 ft | 466 kts | 280° |
| 2026-04-07 14:49 | 51.38466 | 2.48877 | 43277 ft | 465 kts | 280° |
| 2026-04-07 14:49 | 51.39691 | 2.38778 | 43276 ft | 465 kts | 279° |
| 2026-04-07 14:50 | 51.40915 | 2.28596 | 43274 ft | 465 kts | 279° |
| 2026-04-07 14:50 | 51.42143 | 2.18477 | 43274 ft | 464 kts | 280° |
| 2026-04-07 14:51 | 51.43390 | 2.08309 | 43278 ft | 464 kts | 279° |
| 2026-04-07 14:51 | 51.44605 | 1.98201 | 43276 ft | 464 kts | 279° |
| 2026-04-07 14:52 | 51.45803 | 1.88031 | 43271 ft | 464 kts | 279° |
| 2026-04-07 14:52 | 51.46989 | 1.77822 | 43273 ft | 464 kts | 279° |
| 2026-04-07 14:53 | 51.48156 | 1.67690 | 43275 ft | 464 kts | 279° |
| 2026-04-07 14:53 | 51.49322 | 1.57481 | 43274 ft | 464 kts | 279° |
| 2026-04-07 14:54 | 51.50472 | 1.47337 | 43275 ft | 464 kts | 279° |
| 2026-04-07 14:54 | 51.51621 | 1.37116 | 43274 ft | 465 kts | 279° |
| 2026-04-07 14:55 | 51.52759 | 1.26917 | 43273 ft | 465 kts | 279° |
| 2026-04-07 14:55 | 51.53881 | 1.16770 | 43272 ft | 466 kts | 278° |
| 2026-04-07 14:55 | 51.54447 | 1.11630 | 43150 ft | 468 kts | 278° |
| 2026-04-07 14:56 | 51.55011 | 1.06468 | 42879 ft | 469 kts | 278° |
| 2026-04-07 14:56 | 51.55572 | 1.01321 | 42606 ft | 466 kts | 278° |
| 2026-04-07 14:56 | 51.56128 | 0.96195 | 42334 ft | 463 kts | 278° |
| 2026-04-07 14:56 | 51.56677 | 0.91116 | 41991 ft | 461 kts | 278° |
| 2026-04-07 14:57 | 51.57222 | 0.86045 | 41618 ft | 460 kts | 278° |
| 2026-04-07 14:57 | 51.57763 | 0.80993 | 41237 ft | 458 kts | 278° |
| 2026-04-07 14:57 | 51.58302 | 0.75948 | 40856 ft | 457 kts | 278° |
| 2026-04-07 14:57 | 51.58836 | 0.70917 | 40496 ft | 456 kts | 277° |
| 2026-04-07 14:58 | 51.59367 | 0.65891 | 40133 ft | 455 kts | 277° |
| 2026-04-07 14:58 | 51.59895 | 0.60883 | 39789 ft | 455 kts | 277° |
| 2026-04-07 14:58 | 51.60422 | 0.55851 | 39438 ft | 455 kts | 277° |
| 2026-04-07 14:58 | 51.60943 | 0.50870 | 39068 ft | 456 kts | 277° |
| 2026-04-07 14:59 | 51.61469 | 0.45797 | 38566 ft | 458 kts | 277° |
| 2026-04-07 14:59 | 51.61993 | 0.40734 | 37985 ft | 459 kts | 277° |
| 2026-04-07 14:59 | 51.62517 | 0.35652 | 37388 ft | 459 kts | 277° |
| 2026-04-07 14:59 | 51.63031 | 0.30639 | 36797 ft | 459 kts | 277° |
| 2026-04-07 15:00 | 51.63550 | 0.25563 | 36233 ft | 459 kts | 277° |
| 2026-04-07 15:00 | 51.64064 | 0.20501 | 35697 ft | 459 kts | 277° |
| 2026-04-07 15:00 | 51.64706 | 0.15459 | 35183 ft | 460 kts | 285° |
| 2026-04-07 15:00 | 51.65884 | 0.10644 | 34707 ft | 463 kts | 292° |
| 2026-04-07 15:01 | 51.67214 | 0.05904 | 34167 ft | 466 kts | 292° |
| 2026-04-07 15:01 | 51.68561 | 0.01128 | 33587 ft | 468 kts | 292° |
| 2026-04-07 15:01 | 51.69903 | -0.03635 | 33030 ft | 467 kts | 292° |
| 2026-04-07 15:01 | 51.71226 | -0.08359 | 32482 ft | 467 kts | 292° |
| 2026-04-07 15:02 | 51.72573 | -0.13188 | 31927 ft | 466 kts | 292° |
| 2026-04-07 15:02 | 51.73904 | -0.17956 | 31383 ft | 466 kts | 293° |
| 2026-04-07 15:02 | 51.75219 | -0.22667 | 30857 ft | 465 kts | 293° |
| 2026-04-07 15:02 | 51.76542 | -0.27425 | 30339 ft | 462 kts | 293° |
| 2026-04-07 15:03 | 51.77857 | -0.32169 | 29708 ft | 459 kts | 293° |
| 2026-04-07 15:03 | 51.79244 | -0.36785 | 29087 ft | 456 kts | 301° |
| 2026-04-07 15:03 | 51.81109 | -0.40906 | 28532 ft | 454 kts | 310° |
| 2026-04-07 15:03 | 51.83393 | -0.44408 | 27994 ft | 453 kts | 321° |
| 2026-04-07 15:04 | 51.86013 | -0.47225 | 27434 ft | 452 kts | 327° |
| 2026-04-07 15:04 | 51.88700 | -0.49849 | 26874 ft | 450 kts | 327° |
| 2026-04-07 15:04 | 51.91384 | -0.52459 | 26321 ft | 449 kts | 327° |
| 2026-04-07 15:04 | 51.94035 | -0.55037 | 25785 ft | 448 kts | 327° |
| 2026-04-07 15:05 | 51.96704 | -0.57643 | 25232 ft | 447 kts | 327° |
| 2026-04-07 15:05 | 51.99371 | -0.60252 | 24710 ft | 446 kts | 327° |
| 2026-04-07 15:05 | 52.02032 | -0.62857 | 24199 ft | 445 kts | 327° |
| 2026-04-07 15:05 | 52.04658 | -0.65432 | 23674 ft | 444 kts | 327° |
| 2026-04-07 15:06 | 52.07297 | -0.68022 | 23085 ft | 442 kts | 327° |
| 2026-04-07 15:06 | 52.09929 | -0.70612 | 22482 ft | 439 kts | 327° |
| 2026-04-07 15:06 | 52.12535 | -0.73179 | 21909 ft | 435 kts | 327° |
| 2026-04-07 15:06 | 52.15119 | -0.75724 | 21350 ft | 431 kts | 327° |
| 2026-04-07 15:07 | 52.17677 | -0.78250 | 20789 ft | 428 kts | 327° |
| 2026-04-07 15:07 | 52.20179 | -0.80726 | 20246 ft | 424 kts | 326° |
| 2026-04-07 15:07 | 52.22596 | -0.83532 | 19705 ft | 419 kts | 322° |
| 2026-04-07 15:07 | 52.24978 | -0.86127 | 19197 ft | 418 kts | 326° |
| 2026-04-07 15:08 | 52.27454 | -0.88607 | 18676 ft | 416 kts | 327° |
| 2026-04-07 15:08 | 52.29940 | -0.91021 | 18116 ft | 414 kts | 327° |
| 2026-04-07 15:08 | 52.32416 | -0.93398 | 17543 ft | 412 kts | 327° |
| 2026-04-07 15:08 | 52.34885 | -0.95759 | 16973 ft | 409 kts | 327° |
| 2026-04-07 15:09 | 52.37343 | -0.98107 | 16407 ft | 407 kts | 327° |
| 2026-04-07 15:09 | 52.39780 | -1.00437 | 15861 ft | 405 kts | 327° |
| 2026-04-07 15:09 | 52.42203 | -1.02755 | 15324 ft | 401 kts | 327° |
| 2026-04-07 15:09 | 52.44599 | -1.05043 | 14752 ft | 397 kts | 328° |
| 2026-04-07 15:10 | 52.46980 | -1.07309 | 14217 ft | 393 kts | 327° |
| 2026-04-07 15:10 | 52.49327 | -1.09557 | 13651 ft | 389 kts | 327° |
| 2026-04-07 15:10 | 52.51625 | -1.11764 | 13078 ft | 386 kts | 327° |
| 2026-04-07 15:10 | 52.53934 | -1.13979 | 12501 ft | 382 kts | 327° |
| 2026-04-07 15:11 | 52.56219 | -1.16173 | 11934 ft | 378 kts | 327° |
| 2026-04-07 15:11 | 52.58448 | -1.18309 | 11375 ft | 362 kts | 327° |
| 2026-04-07 15:11 | 52.60582 | -1.20349 | 10820 ft | 349 kts | 327° |
| 2026-04-07 15:11 | 52.62641 | -1.22395 | 10273 ft | 340 kts | 321° |
| 2026-04-07 15:12 | 52.64420 | -1.24909 | 9719 ft | 335 kts | 313° |
| 2026-04-07 15:12 | 52.66065 | -1.27606 | 9143 ft | 332 kts | 311° |
| 2026-04-07 15:12 | 52.67662 | -1.30338 | 8575 ft | 329 kts | 310° |
| 2026-04-07 15:12 | 52.69228 | -1.33062 | 8021 ft | 325 kts | 309° |
| 2026-04-07 15:13 | 52.70358 | -1.36182 | 7490 ft | 315 kts | 282° |
| 2026-04-07 15:13 | 52.70564 | -1.39707 | 6995 ft | 307 kts | 261° |
| 2026-04-07 15:13 | 52.70032 | -1.43061 | 6519 ft | 300 kts | 246° |
| 2026-04-07 15:13 | 52.69257 | -1.46234 | 6052 ft | 298 kts | 245° |
| 2026-04-07 15:14 | 52.68474 | -1.49392 | 5611 ft | 299 kts | 245° |
| 2026-04-07 15:14 | 52.67703 | -1.52613 | 5216 ft | 299 kts | 245° |
| 2026-04-07 15:14 | 52.66960 | -1.55742 | 4853 ft | 295 kts | 245° |
| 2026-04-07 15:14 | 52.66212 | -1.58862 | 4444 ft | 289 kts | 245° |
| 2026-04-07 15:15 | 52.65474 | -1.61919 | 4050 ft | 284 kts | 244° |
| 2026-04-07 15:15 | 52.64750 | -1.64922 | 3737 ft | 278 kts | 244° |
| 2026-04-07 15:15 | 52.64048 | -1.67834 | 3576 ft | 267 kts | 244° |
| 2026-04-07 15:15 | 52.63384 | -1.70579 | 3517 ft | 248 kts | 243° |
| 2026-04-07 15:16 | 52.62768 | -1.73130 | 3377 ft | 235 kts | 243° |
| 2026-04-07 15:16 | 52.62167 | -1.75590 | 3211 ft | 230 kts | 243° |
| 2026-04-07 15:16 | 52.61590 | -1.77969 | 3047 ft | 217 kts | 242° |
| 2026-04-07 15:16 | 52.61046 | -1.80217 | 2973 ft | 205 kts | 242° |
| 2026-04-07 15:17 | 52.60537 | -1.82310 | 2971 ft | 193 kts | 241° |
| 2026-04-07 15:17 | 52.60036 | -1.84355 | 2962 ft | 192 kts | 242° |
| 2026-04-07 15:17 | 52.59503 | -1.86290 | 2953 ft | 183 kts | 232° |
| 2026-04-07 15:17 | 52.58556 | -1.87535 | 2942 ft | 171 kts | 199° |
| 2026-04-07 15:18 | 52.57408 | -1.87754 | 2933 ft | 167 kts | 166° |
| 2026-04-07 15:18 | 52.56349 | -1.86906 | 2721 ft | 171 kts | 149° |
| 2026-04-07 15:18 | 52.55373 | -1.85908 | 2501 ft | 166 kts | 147° |
| 2026-04-07 15:18 | 52.54405 | -1.84860 | 2271 ft | 162 kts | 145° |
| 2026-04-07 15:19 | 52.53556 | -1.83918 | 2068 ft | 132 kts | 144° |
| 2026-04-07 15:19 | 52.52836 | -1.83123 | 1893 ft | 121 kts | 143° |
| 2026-04-07 15:19 | 52.52159 | -1.82356 | 1743 ft | 116 kts | 143° |
| 2026-04-07 15:19 | 52.51492 | -1.81612 | 1579 ft | 117 kts | 143° |
| 2026-04-07 15:20 | 52.50827 | -1.80873 | 1432 ft | 114 kts | 143° |
| 2026-04-07 15:20 | 52.50170 | -1.80130 | 1278 ft | 122 kts | 143° |
| 2026-04-07 15:20 | 52.49441 | -1.79317 | 1088 ft | 126 kts | 145° |
| 2026-04-07 15:20 | 52.48755 | -1.78558 | 928 ft | 120 kts | 143° |
| 2026-04-07 15:21 | 52.48052 | -1.77767 | 766 ft | 125 kts | 143° |
| 2026-04-07 15:21 | 52.47295 | -1.76939 | 602 ft | 134 kts | 141° |
| 2026-04-07 15:21 | 52.46547 | -1.76105 | 404 ft | 128 kts | 142° |
| 2026-04-07 15:21 | 52.45842 | -1.75319 | 322 ft | 115 kts | 142° |
| 2026-04-07 15:22 | 52.45326 | -1.74737 | 327 ft | 56 kts | 146° |
| 2026-04-07 15:22 | 52.45163 | -1.74559 | 330 ft | 41 kts | 147° |
| 2026-04-07 15:22 | 52.44944 | -1.74277 | 330 ft | 25 kts | 111° |
| 2026-04-07 15:22 | 52.44960 | -1.74122 | 332 ft | 12 kts | 63° |
| 2026-04-07 15:23 | 52.44981 | -1.74020 | 326 ft | 8 kts | 79° |
| 2026-04-07 15:23 | 52.44998 | -1.73923 | 328 ft | 9 kts | 64° |
| 2026-04-07 15:23 | 52.45033 | -1.73834 | 328 ft | 10 kts | 53° |
| 2026-04-07 15:23 | 52.45060 | -1.73778 | 325 ft | 8 kts | 50° |
| 2026-04-07 15:24 | 52.45099 | -1.73712 | 326 ft | 8 kts | 46° |
| 2026-04-07 15:24 | 52.45124 | -1.73664 | 326 ft | 0 kts | 51° |
| 2026-04-07 15:24 | 52.45127 | -1.73660 | 327 ft | 0 kts | 28° |
| 2026-04-07 15:24 | 52.45130 | -1.73659 | 328 ft | 1 kts | 4° |
| 2026-04-07 15:25 | 52.45162 | -1.73674 | 326 ft | 6 kts | 326° |
| 2026-04-07 15:25 | 52.45181 | -1.73694 | 326 ft | 2 kts | 326° |
| 2026-04-07 15:25 | 52.45191 | -1.73706 | 325 ft | 0 kts | 326° |
| 2026-04-07 15:25 | 52.45195 | -1.73710 | 325 ft | 0 kts | 327° |
| 2026-04-07 15:26 | 52.45197 | -1.73713 | 326 ft | 0 kts | 327° |